Time;durP1;ratioP1;P1;durP2;ratioP2;P2;SDS_P1;SDS_P2;PMS_P1;PMS_P2;Temp;Humidity;BMP_temperature;BMP_pressure;BME280_temperature;BME280_humidity;BME280_pressure;Samples;Min_cycle;Max_cycle;Signal;HPM_P1;HPM_P2
2023/01/14 00:00:22;;;;;;;;;6.00;6.00;;;;;;;;5316736;27;8760;-76
2023/01/14 00:02:54;;;;;;;;;3.80;3.80;;;;;;;;5299455;27;8868;-76
2023/01/14 00:05:25;;;;;;;;;6.40;6.40;;;;;;;;5335057;27;8776;-75
2023/01/14 00:07:56;;;;;;;;;7.40;7.40;;;;;;;;5316631;27;8776;-75
2023/01/14 00:10:27;;;;;;;;;5.20;4.00;;;;;;;;5316218;27;9458;-76
2023/01/14 00:12:58;;;;;;;;;5.20;5.20;;;;;;;;5299131;27;8764;-75
2023/01/14 00:15:29;;;;;;;;;7.00;7.00;;;;;;;;5316376;27;8776;-76
2023/01/14 00:18:00;;;;;;;;;6.80;6.00;;;;;;;;5299132;27;11438;-75
2023/01/14 00:20:31;;;;;;;;;5.60;5.60;;;;;;;;5334566;27;8772;-76
2023/01/14 00:23:02;;;;;;;;;6.80;6.20;;;;;;;;5316425;27;9475;-75
2023/01/14 00:25:34;;;;;;;;;6.00;6.00;;;;;;;;5299419;27;8876;-74
2023/01/14 00:28:05;;;;;;;;;6.40;6.40;;;;;;;;5299241;27;8796;-75
2023/01/14 00:30:36;;;;;;;;;9.40;9.00;;;;;;;;5334590;27;8780;-76
2023/01/14 00:33:08;;;;;;;;;5.00;5.00;;;;;;;;5316202;27;8831;-76
2023/01/14 00:35:39;;;;;;;;;7.00;6.80;;;;;;;;5334304;27;8902;-76
2023/01/14 00:38:10;;;;;;;;;3.00;3.00;;;;;;;;5298644;27;8835;-76
2023/01/14 00:40:41;;;;;;;;;3.80;3.80;;;;;;;;5315748;27;8748;-74
2023/01/14 00:43:12;;;;;;;;;3.00;3.00;;;;;;;;5315132;27;8975;-73
2023/01/14 00:45:43;;;;;;;;;4.80;4.80;;;;;;;;5315978;27;8882;-73
2023/01/14 00:48:14;;;;;;;;;5.60;5.60;;;;;;;;5298426;27;8826;-73
2023/01/14 00:51:04;;;;;;;;;4.40;4.40;;;;;;;;5301141;27;8804;-73
2023/01/14 00:53:36;;;;;;;;;6.00;6.00;;;;;;;;5298605;27;8776;-72
2023/01/14 00:56:08;;;;;;;;;6.00;6.00;;;;;;;;5316057;27;9427;-73
2023/01/14 00:58:40;;;;;;;;;1.80;1.80;;;;;;;;5298413;27;8772;-73
2023/01/14 01:01:12;;;;;;;;;7.00;6.60;;;;;;;;5298571;27;8779;-73
2023/01/14 01:03:45;;;;;;;;;6.40;6.00;;;;;;;;5315262;27;8819;-73
2023/01/14 01:06:17;;;;;;;;;6.40;6.00;;;;;;;;5333887;27;8911;-72
2023/01/14 01:08:49;;;;;;;;;3.80;3.80;;;;;;;;5315183;27;9697;-72
2023/01/14 01:11:20;;;;;;;;;3.00;3.00;;;;;;;;5314987;27;8812;-74
2023/01/14 01:13:53;;;;;;;;;7.20;6.00;;;;;;;;5298343;27;8809;-73
2023/01/14 01:16:42;;;;;;;;;3.60;3.60;;;;;;;;5318821;27;8791;-73
2023/01/14 01:19:13;;;;;;;;;3.60;3.40;;;;;;;;5297918;27;8848;-72
2023/01/14 01:21:44;;;;;;;;;3.80;3.80;;;;;;;;5314846;27;8795;-72
2023/01/14 01:24:34;;;;;;;;;4.40;4.40;;;;;;;;5300964;27;8792;-73
2023/01/14 01:27:23;;;;;;;;;4.20;4.20;;;;;;;;5333947;27;8919;-72
2023/01/14 01:29:55;;;;;;;;;6.20;6.20;;;;;;;;5298155;27;9553;-72
2023/01/14 01:32:26;;;;;;;;;5.60;5.60;;;;;;;;5297618;27;8803;-72
2023/01/14 01:34:57;;;;;;;;;8.20;7.80;;;;;;;;5297444;27;8852;-75
2023/01/14 01:37:30;;;;;;;;;11.80;11.20;;;;;;;;5314914;27;8791;-74
2023/01/14 01:40:02;;;;;;;;;8.00;8.00;;;;;;;;5297703;27;8794;-74
2023/01/14 01:42:55;;;;;;;;;4.00;4.00;;;;;;;;5300340;27;8926;-75
2023/01/14 01:45:33;;;;;;;;;3.00;2.20;;;;;;;;5297586;27;9508;-76
2023/01/14 01:48:08;;;;;;;;;3.00;3.00;;;;;;;;5314388;27;8795;-74
2023/01/14 01:50:40;;;;;;;;;5.60;3.00;;;;;;;;5314058;27;8777;-75
2023/01/14 01:53:11;;;;;;;;;2.80;2.80;;;;;;;;5297307;27;8768;-76
2023/01/14 01:56:02;;;;;;;;;4.80;4.80;;;;;;;;5331837;27;8880;-76
2023/01/14 01:58:35;;;;;;;;;4.00;4.00;;;;;;;;5297805;27;8914;-76
2023/01/14 02:01:06;;;;;;;;;4.80;4.80;;;;;;;;5280136;27;8772;-75
2023/01/14 02:03:39;;;;;;;;;3.60;3.60;;;;;;;;5297121;27;9530;-74
2023/01/14 02:06:11;;;;;;;;;5.20;5.20;;;;;;;;5280117;27;8768;-76
2023/01/14 02:08:45;;;;;;;;;3.00;3.00;;;;;;;;5297222;27;8886;-75
2023/01/14 02:11:25;;;;;;;;;5.60;4.00;;;;;;;;5279876;27;8796;-74
2023/01/14 02:14:03;;;;;;;;;4.00;4.00;;;;;;;;5296879;27;8772;-73
2023/01/14 02:17:31;;;;;;;;;4.00;4.00;;;;;;;;5304928;27;8764;-73
2023/01/14 02:20:33;;;;;;;;;1.00;1.00;;;;;;;;5313926;27;8836;-74
2023/01/14 02:23:14;;;;;;;;;1.00;1.00;;;;;;;;5296037;27;8817;-73
2023/01/14 02:26:04;;;;;;;;;3.40;3.40;;;;;;;;5296541;27;8834;-73
2023/01/14 02:28:56;;;;;;;;;3.60;3.60;;;;;;;;5296676;27;8879;-74
2023/01/14 02:31:32;;;;;;;;;6.00;5.20;;;;;;;;5302307;27;8788;-74
2023/01/14 02:34:13;;;;;;;;;4.00;4.00;;;;;;;;5323034;27;9463;-72
2023/01/14 02:36:52;;;;;;;;;5.60;5.60;;;;;;;;5322070;27;8756;-74
2023/01/14 02:39:40;;;;;;;;;3.00;3.00;;;;;;;;5297655;27;8823;-73
2023/01/14 02:45:12;;;;;;;;;4.20;4.20;;;;;;;;5313599;27;8819;-73
2023/01/14 02:47:47;;;;;;;;;4.00;3.60;;;;;;;;5313564;27;8772;-73
2023/01/14 02:50:19;;;;;;;;;7.00;6.00;;;;;;;;5280213;27;8802;-74
2023/01/14 02:52:50;;;;;;;;;2.60;2.60;;;;;;;;5296090;27;8808;-74
2023/01/14 02:55:28;;;;;;;;;3.60;3.60;;;;;;;;5296385;27;8833;-74
2023/01/14 02:58:19;;;;;;;;;4.00;4.00;;;;;;;;5279467;27;8776;-73
2023/01/14 03:00:59;;;;;;;;;3.00;3.00;;;;;;;;5280645;27;8780;-73
2023/01/14 03:04:00;;;;;;;;;3.00;3.00;;;;;;;;5313001;27;8772;-73
2023/01/14 03:06:38;;;;;;;;;1.40;1.40;;;;;;;;5279271;27;8778;-74
2023/01/14 03:09:09;;;;;;;;;5.60;4.80;;;;;;;;5278842;27;8783;-74
2023/01/14 03:11:48;;;;;;;;;8.40;7.40;;;;;;;;5278495;27;8807;-74
2023/01/14 03:14:24;;;;;;;;;6.00;6.00;;;;;;;;5312937;27;8780;-74
2023/01/14 03:17:17;;;;;;;;;6.40;6.40;;;;;;;;5331345;27;8824;-75
2023/01/14 03:20:11;;;;;;;;;9.20;9.20;;;;;;;;5313891;27;8791;-75
2023/01/14 03:27:00;;;;;;;;;6.40;6.40;;;;;;;;5331455;27;8788;-78
2023/01/14 03:29:34;;;;;;;;;8.00;8.00;;;;;;;;5296567;27;8768;-77
2023/01/14 03:32:10;;;;;;;;;7.00;7.00;;;;;;;;5280638;27;8815;-77
2023/01/14 03:34:47;;;;;;;;;14.60;13.40;;;;;;;;5313708;27;8764;-76
2023/01/14 03:37:44;;;;;;;;;11.00;9.80;;;;;;;;5331484;27;8792;-74
2023/01/14 03:40:16;;;;;;;;;71.60;57.00;;;;;;;;5295438;27;8812;-75
2023/01/14 03:42:50;;;;;;;;;12.00;12.00;;;;;;;;5295331;27;8819;-76
2023/01/14 03:45:28;;;;;;;;;6.80;6.60;;;;;;;;5312916;27;8886;-77
2023/01/14 03:47:59;;;;;;;;;10.80;9.60;;;;;;;;5295537;27;8769;-77
2023/01/14 03:50:52;;;;;;;;;6.40;6.40;;;;;;;;5298722;27;9525;-76
2023/01/14 03:53:23;;;;;;;;;3.20;3.20;;;;;;;;5312383;27;8768;-77
2023/01/14 03:56:06;;;;;;;;;6.00;6.00;;;;;;;;5278566;27;8973;-78
2023/01/14 03:58:45;;;;;;;;;1.00;1.00;;;;;;;;5331056;27;8884;-76
2023/01/14 04:01:20;;;;;;;;;1.80;1.80;;;;;;;;5278967;27;8790;-77
2023/01/14 04:03:51;;;;;;;;;4.80;4.80;;;;;;;;5295041;27;8772;-75
2023/01/14 04:06:22;;;;;;;;;3.20;3.20;;;;;;;;5330892;27;9496;-82
2023/01/14 04:08:55;;;;;;;;;3.40;3.40;;;;;;;;5317855;27;8792;-77
2023/01/14 04:11:46;;;;;;;;;2.60;2.60;;;;;;;;5298254;27;8834;-75
2023/01/14 04:17:08;;;;;;;;;4.00;4.00;;;;;;;;5295641;27;8760;-75
2023/01/14 04:19:39;;;;;;;;;4.00;4.00;;;;;;;;5281395;27;8805;-76
2023/01/14 04:22:29;;;;;;;;;0.00;0.00;;;;;;;;5301659;27;8807;-78
2023/01/14 04:25:01;;;;;;;;;6.00;6.00;;;;;;;;5282230;27;8772;-75
2023/01/14 04:27:33;;;;;;;;;3.00;3.00;;;;;;;;5282519;27;8785;-76
2023/01/14 04:30:05;;;;;;;;;5.40;5.40;;;;;;;;5298840;27;8792;-76
2023/01/14 04:32:36;;;;;;;;;6.00;5.60;;;;;;;;5299325;27;8800;-76
2023/01/14 04:35:08;;;;;;;;;3.20;3.20;;;;;;;;5281552;27;8795;-77
2023/01/14 04:37:39;;;;;;;;;6.80;6.80;;;;;;;;5315933;27;8832;-76
2023/01/14 04:40:11;;;;;;;;;5.20;4.00;;;;;;;;5298948;27;8798;-76
2023/01/14 04:42:43;;;;;;;;;2.60;2.60;;;;;;;;5333974;27;8810;-74
2023/01/14 04:45:33;;;;;;;;;6.60;5.20;;;;;;;;5301530;27;8816;-75
2023/01/14 04:48:04;;;;;;;;;4.00;4.00;;;;;;;;5298519;27;8814;-76
2023/01/14 04:50:41;;;;;;;;;6.00;6.00;;;;;;;;5299546;27;8914;-71
2023/01/14 04:53:17;;;;;;;;;3.00;3.00;;;;;;;;5282190;27;8781;-68
2023/01/14 04:56:07;;;;;;;;;6.20;6.20;;;;;;;;5318613;27;8748;-71
2023/01/14 04:59:02;;;;;;;;;2.20;2.20;;;;;;;;5301211;27;8898;-72
2023/01/14 05:01:33;;;;;;;;;3.00;3.00;;;;;;;;5281390;27;8764;-72
2023/01/14 05:04:05;;;;;;;;;9.40;9.40;;;;;;;;5281685;27;8775;-72
2023/01/14 05:06:36;;;;;;;;;4.40;4.40;;;;;;;;5280989;27;8772;-73
2023/01/14 05:09:26;;;;;;;;;4.40;4.40;;;;;;;;5301419;27;8752;-74
2023/01/14 05:11:57;;;;;;;;;3.20;3.20;;;;;;;;5298058;27;8822;-74
2023/01/14 05:14:29;;;;;;;;;4.20;4.20;;;;;;;;5316101;27;8752;-73
2023/01/14 05:17:01;;;;;;;;;3.40;3.40;;;;;;;;5281497;27;9504;-74
2023/01/14 05:19:32;;;;;;;;;9.40;9.40;;;;;;;;5314882;27;8776;-73
2023/01/14 05:26:28;;;;;;;;;9.00;9.00;;;;;;;;5321032;27;8768;-73
2023/01/14 05:28:59;;;;;;;;;9.80;9.80;;;;;;;;5292943;27;8937;-72
2023/01/14 05:31:48;;;;;;;;;7.40;7.40;;;;;;;;5299875;27;8784;-71
2023/01/14 05:34:21;;;;;;;;;5.60;5.60;;;;;;;;5280607;27;8836;-73
2023/01/14 05:36:52;;;;;;;;;7.00;7.00;;;;;;;;5280887;27;8764;-73
2023/01/14 05:39:23;;;;;;;;;9.60;9.40;;;;;;;;5314482;27;9495;-72
2023/01/14 05:47:52;;;;;;;;;14.60;13.80;;;;;;;;5297491;27;8764;-73
2023/01/14 05:50:42;;;;;;;;;18.00;15.80;;;;;;;;5333398;27;8756;-71
2023/01/14 05:53:13;;;;;;;;;14.00;14.00;;;;;;;;5314260;27;9502;-71
2023/01/14 05:55:44;;;;;;;;;10.80;10.80;;;;;;;;5333756;27;9466;-73
2023/01/14 05:58:33;;;;;;;;;10.40;10.40;;;;;;;;5314015;27;8855;-73
2023/01/14 06:06:47;;;;;;;;;7.80;7.80;;;;;;;;5314289;27;8853;-72
2023/01/14 06:09:19;;;;;;;;;24.80;22.60;;;;;;;;5314148;27;8841;-71
2023/01/14 06:12:01;;;;;;;;;4.80;4.80;;;;;;;;5313904;27;8803;-71
2023/01/14 06:14:33;;;;;;;;;6.60;6.60;;;;;;;;5314112;27;8756;-71
2023/01/14 06:17:08;;;;;;;;;8.60;8.60;;;;;;;;5332288;27;8799;-71
2023/01/14 06:19:39;;;;;;;;;10.00;9.60;;;;;;;;5296581;27;8788;-70
2023/01/14 06:22:10;;;;;;;;;7.00;7.00;;;;;;;;5314499;27;9412;-71
2023/01/14 06:24:41;;;;;;;;;10.00;10.00;;;;;;;;5332476;27;8780;-69
2023/01/14 06:27:12;;;;;;;;;9.80;9.80;;;;;;;;5296493;27;11550;-70
2023/01/14 06:29:43;;;;;;;;;7.00;7.00;;;;;;;;5313421;27;8894;-71
2023/01/14 06:32:14;;;;;;;;;8.20;8.20;;;;;;;;5279424;27;11403;-70
2023/01/14 06:34:45;;;;;;;;;9.80;9.00;;;;;;;;5296477;27;8757;-70
2023/01/14 06:37:16;;;;;;;;;10.00;10.00;;;;;;;;5313634;27;8840;-70
2023/01/14 06:39:47;;;;;;;;;6.20;6.20;;;;;;;;5297121;27;8775;-71
2023/01/14 06:42:18;;;;;;;;;7.20;7.20;;;;;;;;5274545;27;8898;-71
2023/01/14 06:44:50;;;;;;;;;8.20;8.20;;;;;;;;5292201;27;8782;-71
2023/01/14 06:47:21;;;;;;;;;11.20;11.20;;;;;;;;5292278;27;8831;-71
2023/01/14 06:50:11;;;;;;;;;8.60;8.60;;;;;;;;5292108;27;8766;-71
2023/01/14 06:52:43;;;;;;;;;6.80;6.80;;;;;;;;5309108;27;8811;-71
2023/01/14 06:55:15;;;;;;;;;39.80;39.40;;;;;;;;5274614;27;8847;-72
2023/01/14 06:57:46;;;;;;;;;24.20;21.80;;;;;;;;5291918;27;9572;-72
2023/01/14 07:00:17;;;;;;;;;17.20;16.60;;;;;;;;5291552;27;8969;-71
2023/01/14 07:07:11;;;;;;;;;12.40;12.20;;;;;;;;5309568;27;8715;-72
2023/01/14 07:10:01;;;;;;;;;9.60;9.00;;;;;;;;5278117;27;8967;-71
2023/01/14 07:12:32;;;;;;;;;10.20;9.80;;;;;;;;5274575;27;8790;-71
2023/01/14 07:15:03;;;;;;;;;12.00;11.60;;;;;;;;5291762;27;8758;-72
2023/01/14 07:17:34;;;;;;;;;37.20;34.00;;;;;;;;5274576;27;8786;-72
2023/01/14 07:20:07;;;;;;;;;16.00;15.80;;;;;;;;5274088;27;8782;-72
2023/01/14 07:27:02;;;;;;;;;10.40;10.40;;;;;;;;5301311;27;8773;-71
2023/01/14 07:29:33;;;;;;;;;15.00;14.20;;;;;;;;5273991;27;8782;-71
2023/01/14 07:32:04;;;;;;;;;16.80;16.40;;;;;;;;5310184;27;9511;-71
2023/01/14 07:34:35;;;;;;;;;9.60;9.40;;;;;;;;5291822;27;8793;-72
2023/01/14 07:37:06;;;;;;;;;15.00;15.00;;;;;;;;5274658;27;8781;-71
2023/01/14 07:39:56;;;;;;;;;12.40;12.40;;;;;;;;5309195;27;8782;-71
2023/01/14 07:42:46;;;;;;;;;12.80;12.80;;;;;;;;5295954;27;8806;-70
2023/01/14 07:45:17;;;;;;;;;12.60;10.40;;;;;;;;5291171;27;8779;-72
2023/01/14 07:52:12;;;;;;;;;12.60;12.00;;;;;;;;5309048;27;11502;-72
2023/01/14 07:54:44;;;;;;;;;14.60;14.60;;;;;;;;5294385;27;8862;-73
2023/01/14 07:57:15;;;;;;;;;15.60;15.60;;;;;;;;5312143;27;8775;-74
2023/01/14 07:59:46;;;;;;;;;14.20;12.80;;;;;;;;5295942;27;8806;-73
2023/01/14 08:02:17;;;;;;;;;27.20;23.20;;;;;;;;5312612;27;8770;-71
2023/01/14 08:04:48;;;;;;;;;13.50;12.75;;;;;;;;5312611;27;9426;-72
2023/01/14 08:07:19;;;;;;;;;11.20;9.00;;;;;;;;5312244;27;10620;-72
2023/01/14 08:09:50;;;;;;;;;10.00;10.00;;;;;;;;5294910;27;8843;-72
2023/01/14 08:12:21;;;;;;;;;16.00;15.75;;;;;;;;5294765;27;9512;-72
2023/01/14 08:14:52;;;;;;;;;16.50;16.50;;;;;;;;5294749;27;8818;-71
2023/01/14 08:21:47;;;;;;;;;15.40;15.00;;;;;;;;5312475;27;11442;-71
2023/01/14 08:28:41;;;;;;;;;13.00;12.60;;;;;;;;5313141;27;8743;-73
2023/01/14 08:31:14;;;;;;;;;3.60;3.60;;;;;;;;5312934;27;8791;-72
2023/01/14 08:33:45;;;;;;;;;12.20;12.20;;;;;;;;5295691;27;8783;-72
2023/01/14 08:36:34;;;;;;;;;22.40;18.80;;;;;;;;5297542;27;8767;-71
2023/01/14 08:39:05;;;;;;;;;12.60;8.80;;;;;;;;5312207;27;8818;-74
2023/01/14 08:41:36;;;;;;;;;12.40;12.40;;;;;;;;5317049;27;8775;-71
2023/01/14 08:44:07;;;;;;;;;8.00;8.00;;;;;;;;5321398;27;8907;-71
2023/01/14 08:46:41;;;;;;;;;20.25;19.00;;;;;;;;5288586;27;8862;-74
2023/01/14 08:49:12;;;;;;;;;12.80;12.80;;;;;;;;5314181;27;11467;-74
2023/01/14 08:51:43;;;;;;;;;69.60;54.00;;;;;;;;5294445;27;8825;-72
2023/01/14 08:54:14;;;;;;;;;21.40;20.20;;;;;;;;5294853;27;8775;-75
2023/01/14 08:56:45;;;;;;;;;20.40;19.40;;;;;;;;5294334;27;9494;-73
2023/01/14 09:03:40;;;;;;;;;7.40;7.40;;;;;;;;5311777;27;11392;-75
2023/01/14 09:06:12;;;;;;;;;18.80;16.80;;;;;;;;5310708;27;8790;-74
2023/01/14 09:17:16;;;;;;;;;20.20;18.60;;;;;;;;5294260;27;8767;-74
2023/01/14 09:19:52;;;;;;;;;21.80;19.40;;;;;;;;5311134;27;8899;-74
2023/01/14 09:22:25;;;;;;;;;19.40;17.20;;;;;;;;5294069;27;8763;-73
2023/01/14 09:24:57;;;;;;;;;8.80;6.60;;;;;;;;5293659;27;8763;-73
2023/01/14 09:27:29;;;;;;;;;12.40;10.80;;;;;;;;5310887;27;9579;-75
2023/01/14 09:30:00;;;;;;;;;18.00;18.00;;;;;;;;5293427;27;8941;-76
2023/01/14 09:32:39;;;;;;;;;14.00;13.60;;;;;;;;5277190;27;9644;-74
2023/01/14 09:35:10;;;;;;;;;23.00;23.00;;;;;;;;5276950;27;8802;-75
2023/01/14 09:37:41;;;;;;;;;18.00;15.80;;;;;;;;5310180;27;8906;-75
2023/01/14 09:40:13;;;;;;;;;21.00;20.60;;;;;;;;5276140;27;8868;-73
2023/01/14 09:42:48;;;;;;;;;17.60;16.00;;;;;;;;5288777;27;9520;-77
2023/01/14 09:45:25;;;;;;;;;24.40;20.20;;;;;;;;5276282;27;8790;-74
2023/01/14 09:48:02;;;;;;;;;16.80;16.20;;;;;;;;5276155;27;8774;-73
2023/01/14 09:50:33;;;;;;;;;17.20;17.20;;;;;;;;5293317;27;9473;-73
2023/01/14 09:53:10;;;;;;;;;24.40;23.60;;;;;;;;5276382;27;8861;-74
2023/01/14 09:55:51;;;;;;;;;10.00;10.00;;;;;;;;5276700;27;8893;-74
2023/01/14 09:58:29;;;;;;;;;15.40;14.40;;;;;;;;5259287;27;8881;-74
2023/01/14 10:01:09;;;;;;;;;16.80;15.00;;;;;;;;5276393;27;8786;-73
2023/01/14 10:04:04;;;;;;;;;13.80;13.00;;;;;;;;5259573;27;8774;-71
2023/01/14 10:06:35;;;;;;;;;13.80;13.80;;;;;;;;5213086;27;8793;-74
2023/01/14 10:09:11;;;;;;;;;17.20;16.60;;;;;;;;5275955;27;8798;-73
2023/01/14 10:11:44;;;;;;;;;15.20;12.00;;;;;;;;5275162;27;8813;-72
2023/01/14 10:14:50;;;;;;;;;16.20;14.20;;;;;;;;5278084;27;8778;-72
2023/01/14 10:17:22;;;;;;;;;16.60;16.60;;;;;;;;5257910;27;8781;-72
2023/01/14 10:19:53;;;;;;;;;10.00;9.40;;;;;;;;5275267;27;8789;-70
2023/01/14 10:22:47;;;;;;;;;11.80;10.60;;;;;;;;5277802;27;8774;-72
2023/01/14 10:25:20;;;;;;;;;15.20;15.20;;;;;;;;5259236;27;8770;-72
2023/01/14 10:27:52;;;;;;;;;12.40;12.40;;;;;;;;5258542;27;8787;-72
2023/01/14 10:30:35;;;;;;;;;11.00;10.60;;;;;;;;5258868;27;8766;-72
2023/01/14 10:33:07;;;;;;;;;9.00;9.00;;;;;;;;5276241;27;9540;-71
2023/01/14 10:35:40;;;;;;;;;17.40;17.40;;;;;;;;5275305;27;8758;-71
2023/01/14 10:38:30;;;;;;;;;18.00;15.80;;;;;;;;5277714;27;8777;-72
2023/01/14 10:41:48;;;;;;;;;19.00;16.00;;;;;;;;5277253;27;8782;-73
2023/01/14 10:44:27;;;;;;;;;15.40;15.40;;;;;;;;5310525;27;8924;-70
2023/01/14 10:47:03;;;;;;;;;20.40;19.80;;;;;;;;5258296;27;8812;-72
2023/01/14 10:49:41;;;;;;;;;16.40;15.40;;;;;;;;5258057;27;8898;-73
2023/01/14 10:52:29;;;;;;;;;17.80;17.40;;;;;;;;5257736;27;8798;-71
2023/01/14 10:55:16;;;;;;;;;39.20;35.20;;;;;;;;5258033;27;8885;-72
2023/01/14 10:58:11;;;;;;;;;15.00;12.80;;;;;;;;5292126;27;8859;-73
2023/01/14 11:01:12;;;;;;;;;18.00;18.00;;;;;;;;5275727;27;8770;-73
2023/01/14 11:03:48;;;;;;;;;17.60;16.00;;;;;;;;5222686;27;8763;-72
2023/01/14 11:06:19;;;;;;;;;26.60;26.20;;;;;;;;5274563;27;8762;-72
2023/01/14 11:08:51;;;;;;;;;32.00;30.00;;;;;;;;5257845;27;8766;-73
2023/01/14 11:11:24;;;;;;;;;20.60;20.60;;;;;;;;5257795;27;8798;-72
2023/01/14 11:13:55;;;;;;;;;20.20;19.80;;;;;;;;5274681;27;8786;-73
2023/01/14 11:16:28;;;;;;;;;18.00;16.00;;;;;;;;5274139;27;8766;-73
2023/01/14 11:19:31;;;;;;;;;12.60;11.20;;;;;;;;5274085;27;8774;-72
2023/01/14 11:22:21;;;;;;;;;18.80;13.60;;;;;;;;5260536;27;8794;-73
2023/01/14 11:24:54;;;;;;;;;14.60;14.60;;;;;;;;5257498;27;8766;-72
2023/01/14 11:27:27;;;;;;;;;20.60;20.40;;;;;;;;5257397;27;8917;-72
2023/01/14 11:30:18;;;;;;;;;13.60;13.20;;;;;;;;5277267;27;8778;-72
2023/01/14 11:32:51;;;;;;;;;17.80;16.60;;;;;;;;5274000;27;8806;-73
2023/01/14 11:35:24;;;;;;;;;31.00;26.80;;;;;;;;5257985;27;8855;-72
2023/01/14 11:37:56;;;;;;;;;25.40;24.20;;;;;;;;5274858;27;8814;-72
2023/01/14 11:43:25;;;;;;;;;16.40;15.60;;;;;;;;5291183;27;9537;-72
2023/01/14 11:46:04;;;;;;;;;17.20;16.00;;;;;;;;5257427;27;8798;-73
2023/01/14 11:48:35;;;;;;;;;25.00;24.80;;;;;;;;5274540;27;8782;-72
2023/01/14 11:51:21;;;;;;;;;16.60;16.60;;;;;;;;5257475;27;8810;-72
2023/01/14 11:54:16;;;;;;;;;21.60;20.20;;;;;;;;5276402;27;8784;-72
2023/01/14 11:56:48;;;;;;;;;18.00;16.80;;;;;;;;5257302;27;8767;-71
2023/01/14 11:59:25;;;;;;;;;21.20;20.20;;;;;;;;5257172;27;8784;-70
2023/01/14 12:02:08;;;;;;;;;18.40;15.40;;;;;;;;5257749;27;8775;-71
2023/01/14 12:05:03;;;;;;;;;13.40;13.40;;;;;;;;5274564;27;8770;-71
2023/01/14 12:07:54;;;;;;;;;18.00;18.00;;;;;;;;5277859;27;8778;-71
2023/01/14 12:19:23;;;;;;;;;9.00;9.00;;;;;;;;5309487;27;8703;-72
2023/01/14 12:22:00;;;;;;;;;17.40;17.00;;;;;;;;5274435;27;8766;-72
2023/01/14 12:25:00;;;;;;;;;9.60;9.40;;;;;;;;5274421;27;8758;-72
2023/01/14 12:27:52;;;;;;;;;12.00;12.00;;;;;;;;5308224;27;9504;-73
2023/01/14 12:30:23;;;;;;;;;9.80;8.60;;;;;;;;5290740;27;8743;-72
2023/01/14 12:32:54;;;;;;;;;13.60;12.60;;;;;;;;5274113;27;8810;-74
2023/01/14 12:35:27;;;;;;;;;8.60;6.80;;;;;;;;5256832;27;8834;-72
2023/01/14 12:38:03;;;;;;;;;15.00;14.60;;;;;;;;5309439;27;8779;-72
2023/01/14 12:46:53;;;;;;;;;21.80;21.00;;;;;;;;5294596;27;8764;-72
2023/01/14 12:49:24;;;;;;;;;46.80;42.60;;;;;;;;5294442;27;8756;-72
2023/01/14 12:51:55;;;;;;;;;24.40;21.80;;;;;;;;5294457;27;8835;-72
2023/01/14 12:54:48;;;;;;;;;20.00;20.00;;;;;;;;5311280;27;8783;-72
2023/01/14 12:57:21;;;;;;;;;20.80;19.80;;;;;;;;5312499;27;9434;-72
2023/01/14 13:00:15;;;;;;;;;24.20;21.80;;;;;;;;5294275;27;8775;-72
2023/01/14 13:02:48;;;;;;;;;15.20;15.20;;;;;;;;5294102;27;8787;-72
2023/01/14 13:05:41;;;;;;;;;10.40;10.40;;;;;;;;5311324;27;8759;-71
2023/01/14 13:08:25;;;;;;;;;11.00;8.80;;;;;;;;5277268;27;8779;-72
2023/01/14 13:11:01;;;;;;;;;16.40;15.60;;;;;;;;5277831;27;8806;-72
2023/01/14 13:13:34;;;;;;;;;12.00;12.00;;;;;;;;5277141;27;8775;-72
2023/01/14 13:16:25;;;;;;;;;6.20;6.20;;;;;;;;5276775;27;8775;-72
2023/01/14 13:19:32;;;;;;;;;10.40;10.40;;;;;;;;5296102;27;8768;-72
2023/01/14 13:22:04;;;;;;;;;3.40;3.00;;;;;;;;5277569;27;8774;-73
2023/01/14 13:24:37;;;;;;;;;20.40;17.40;;;;;;;;5276998;27;8787;-73
2023/01/14 13:27:46;;;;;;;;;10.80;10.80;;;;;;;;5277049;27;8922;-73
2023/01/14 13:34:59;;;;;;;;;14.20;14.20;;;;;;;;5265019;27;8787;-72
2023/01/14 13:37:31;;;;;;;;;23.80;22.60;;;;;;;;5311212;27;8762;-73
2023/01/14 13:40:05;;;;;;;;;11.20;11.20;;;;;;;;5292980;27;8799;-73
2023/01/14 13:42:38;;;;;;;;;13.20;13.20;;;;;;;;5276317;27;8872;-73
2023/01/14 13:45:22;;;;;;;;;16.40;15.20;;;;;;;;5294136;27;8771;-73
2023/01/14 13:47:55;;;;;;;;;18.20;16.40;;;;;;;;5294092;27;8790;-73
2023/01/14 13:50:30;;;;;;;;;17.00;17.00;;;;;;;;5275580;27;8787;-73
2023/01/14 13:53:19;;;;;;;;;14.60;14.60;;;;;;;;5310248;27;9489;-71
2023/01/14 13:55:53;;;;;;;;;20.60;20.60;;;;;;;;5276606;27;8783;-71
2023/01/14 13:58:49;;;;;;;;;17.00;17.00;;;;;;;;5295777;27;8810;-73
2023/01/14 14:01:29;;;;;;;;;12.80;12.80;;;;;;;;5310536;27;8775;-70
2023/01/14 14:04:04;;;;;;;;;19.00;18.20;;;;;;;;5275967;27;8783;-70
2023/01/14 14:06:41;;;;;;;;;18.60;18.40;;;;;;;;5293253;27;8909;-72
2023/01/14 14:09:23;;;;;;;;;14.20;14.00;;;;;;;;5292464;27;8775;-73
2023/01/14 14:11:57;;;;;;;;;20.60;20.60;;;;;;;;5275817;27;8795;-71
2023/01/14 14:14:30;;;;;;;;;12.60;12.00;;;;;;;;5276226;27;8775;-72
2023/01/14 14:17:03;;;;;;;;;21.00;21.00;;;;;;;;5309770;27;8763;-71
2023/01/14 14:19:44;;;;;;;;;19.60;17.20;;;;;;;;5275599;27;8793;-71
2023/01/14 14:22:21;;;;;;;;;16.00;15.60;;;;;;;;5275751;27;9589;-71
2023/01/14 14:24:54;;;;;;;;;19.80;19.80;;;;;;;;5276015;27;8787;-72
2023/01/14 14:27:28;;;;;;;;;6.80;6.80;;;;;;;;5275774;27;8789;-72
2023/01/14 14:30:05;;;;;;;;;13.40;13.40;;;;;;;;5274997;27;8759;-74
2023/01/14 14:32:38;;;;;;;;;16.80;16.00;;;;;;;;5292468;27;8836;-73
2023/01/14 14:35:14;;;;;;;;;17.60;14.40;;;;;;;;5292179;27;8795;-73
2023/01/14 14:37:55;;;;;;;;;54.60;48.80;;;;;;;;5290357;27;8763;-73
2023/01/14 14:40:27;;;;;;;;;17.60;17.60;;;;;;;;5307676;27;8771;-73
2023/01/14 14:42:59;;;;;;;;;17.20;16.80;;;;;;;;5307862;27;8823;-72
2023/01/14 14:50:17;;;;;;;;;117.20;93.20;;;;;;;;5312298;27;8695;-71
2023/01/14 14:52:48;;;;;;;;;21.20;18.40;;;;;;;;5317471;27;8799;-71
2023/01/14 14:55:19;;;;;;;;;16.60;16.60;;;;;;;;5301293;27;8770;-73
2023/01/14 14:57:51;;;;;;;;;16.20;16.20;;;;;;;;5316113;27;9470;-72
2023/01/14 15:00:23;;;;;;;;;23.80;19.20;;;;;;;;5277520;27;8809;-71
2023/01/14 15:02:55;;;;;;;;;18.00;17.60;;;;;;;;5276410;27;8763;-71
2023/01/14 15:05:29;;;;;;;;;15.60;14.60;;;;;;;;5292524;27;8802;-71
2023/01/14 15:08:10;;;;;;;;;2.60;1.00;;;;;;;;5292177;27;8771;-71
2023/01/14 15:10:44;;;;;;;;;23.20;23.20;;;;;;;;5275688;27;8759;-73
2023/01/14 15:13:18;;;;;;;;;21.60;18.40;;;;;;;;5291662;27;8827;-72
2023/01/14 15:16:03;;;;;;;;;17.20;14.00;;;;;;;;5291345;27;8988;-71
2023/01/14 15:18:38;;;;;;;;;12.40;12.00;;;;;;;;5291672;27;8763;-70
2023/01/14 15:21:12;;;;;;;;;18.80;17.60;;;;;;;;5291798;27;8783;-71
2023/01/14 15:23:45;;;;;;;;;7.80;7.80;;;;;;;;5274497;27;8775;-71
2023/01/14 15:26:17;;;;;;;;;20.60;20.20;;;;;;;;5291458;27;8786;-70
2023/01/14 15:28:49;;;;;;;;;26.20;25.20;;;;;;;;5307561;27;8945;-72
2023/01/14 15:35:07;;;;;;;;;15.80;15.40;;;;;;;;5286001;28;8798;-71
2023/01/14 15:37:39;;;;;;;;;15.60;15.20;;;;;;;;5253399;28;8784;-71
2023/01/14 15:44:44;;;;;;;;;14.00;13.40;;;;;;;;5309710;27;8770;-70
2023/01/14 15:47:22;;;;;;;;;16.80;16.80;;;;;;;;5275080;27;8853;-71
2023/01/14 15:49:54;;;;;;;;;14.20;14.20;;;;;;;;5274908;27;8781;-72
2023/01/14 15:52:29;;;;;;;;;11.40;11.00;;;;;;;;5274871;27;8813;-71
2023/01/14 15:55:20;;;;;;;;;15.40;13.00;;;;;;;;5276702;27;8779;-72
2023/01/14 15:57:52;;;;;;;;;12.40;10.80;;;;;;;;5290974;27;8774;-70
2023/01/14 16:00:28;;;;;;;;;14.80;13.40;;;;;;;;5290980;27;8771;-70
2023/01/14 16:03:32;;;;;;;;;18.20;18.20;;;;;;;;5274231;27;8786;-69
2023/01/14 16:06:22;;;;;;;;;31.20;20.00;;;;;;;;5268071;27;8801;-71
2023/01/14 16:09:19;;;;;;;;;17.00;15.40;;;;;;;;5294191;27;8770;-71
2023/01/14 16:11:53;;;;;;;;;15.00;13.80;;;;;;;;5291817;27;8825;-70
2023/01/14 16:14:45;;;;;;;;;15.20;15.00;;;;;;;;5278409;27;8767;-70
2023/01/14 16:17:17;;;;;;;;;23.80;20.80;;;;;;;;5295178;27;8778;-71
2023/01/14 16:19:54;;;;;;;;;19.80;19.80;;;;;;;;5278061;27;8774;-71
2023/01/14 16:22:25;;;;;;;;;24.00;22.00;;;;;;;;5294694;27;8793;-71
2023/01/14 16:24:57;;;;;;;;;26.40;22.60;;;;;;;;5277675;27;8798;-71
2023/01/14 16:27:28;;;;;;;;;27.00;27.00;;;;;;;;5277889;27;8794;-71
2023/01/14 16:29:59;;;;;;;;;121.40;89.20;;;;;;;;5294959;27;8797;-71
2023/01/14 16:32:30;;;;;;;;;16.40;16.40;;;;;;;;5311701;27;8782;-72
2023/01/14 16:35:20;;;;;;;;;17.60;17.60;;;;;;;;5298105;27;8912;-71
2023/01/14 16:37:51;;;;;;;;;19.00;18.00;;;;;;;;5278060;27;8774;-72
2023/01/14 16:44:47;;;;;;;;;19.60;18.00;;;;;;;;5309477;27;8758;-74
2023/01/14 16:47:20;;;;;;;;;17.20;14.20;;;;;;;;5315082;27;8764;-72
2023/01/14 16:49:51;;;;;;;;;13.80;13.80;;;;;;;;5281868;27;8783;-73
2023/01/14 16:56:49;;;;;;;;;12.20;12.20;;;;;;;;5334003;27;9403;-72
2023/01/14 16:59:26;;;;;;;;;18.20;18.20;;;;;;;;5299609;27;8756;-73
2023/01/14 17:01:58;;;;;;;;;21.00;18.40;;;;;;;;5276719;27;8817;-73
2023/01/14 17:04:47;;;;;;;;;15.20;14.20;;;;;;;;5294585;27;8782;-73
2023/01/14 17:07:20;;;;;;;;;13.60;13.60;;;;;;;;5314867;27;8757;-73
2023/01/14 17:09:51;;;;;;;;;15.20;13.80;;;;;;;;5293452;27;9497;-73
2023/01/14 17:12:42;;;;;;;;;9.80;9.20;;;;;;;;5279951;27;8790;-73
2023/01/14 17:15:16;;;;;;;;;13.00;12.60;;;;;;;;5260383;27;8843;-73
2023/01/14 17:17:49;;;;;;;;;19.80;18.00;;;;;;;;5276374;27;8780;-73
2023/01/14 17:20:23;;;;;;;;;9.80;6.80;;;;;;;;5259892;27;8814;-72
2023/01/14 17:22:56;;;;;;;;;13.20;12.20;;;;;;;;5276706;27;8782;-74